createdAt,value
2023-04-16T00:01:24.367Z,99402.40
2023-04-16T00:03:53.062Z,99402.23
2023-04-16T00:06:22.490Z,99403.40
2023-04-16T00:08:51.275Z,99403.58
2023-04-16T00:11:19.791Z,99402.90
2023-04-16T00:13:48.410Z,99406.02
2023-04-16T00:16:16.922Z,99404.27
2023-04-16T00:18:45.403Z,99400.98
2023-04-16T00:21:13.792Z,99407.31
2023-04-16T00:23:42.224Z,99409.51
2023-04-16T00:26:10.553Z,99411.77
2023-04-16T00:28:40.959Z,99415.40
2023-04-16T00:31:09.349Z,99414.29
2023-04-16T00:33:37.762Z,99417.79
2023-04-16T00:36:07.256Z,99418.83
2023-04-16T00:38:37.045Z,99418.64
2023-04-16T00:41:05.549Z,99419.23
2023-04-16T00:43:34.148Z,99417.96
2023-04-16T00:46:06.068Z,99419.98
2023-04-16T00:48:34.993Z,99415.68
2023-04-16T00:51:05.574Z,99413.16
2023-04-16T00:53:34.863Z,99416.44
2023-04-16T00:56:06.081Z,99417.05
2023-04-16T00:58:35.696Z,99420.65
2023-04-16T01:01:05.061Z,99421.27
2023-04-16T01:03:39.510Z,99423.52
2023-04-16T01:06:08.148Z,99427.86
2023-04-16T01:08:36.697Z,99427.48
2023-04-16T01:11:06.112Z,99433.40
2023-04-16T01:13:38.511Z,99431.48
2023-04-16T01:16:08.270Z,99436.73
2023-04-16T01:18:37.386Z,99436.26
2023-04-16T01:21:06.828Z,99434.48
2023-04-16T01:23:35.379Z,99436.38
2023-04-16T01:26:04.027Z,99437.27
2023-04-16T01:28:32.507Z,99436.85
2023-04-16T01:31:01.070Z,99440.98
2023-04-16T01:33:47.051Z,99447.67
2023-04-16T01:36:15.571Z,99447.94
2023-04-16T01:38:44.093Z,99448.38
2023-04-16T01:41:12.468Z,99450.44
2023-04-16T01:43:41.945Z,99455.90
2023-04-16T01:46:17.855Z,99457.98
2023-04-16T01:48:46.535Z,99458.69
2023-04-16T01:51:14.942Z,99458.89
2023-04-16T01:53:43.385Z,99461.33
2023-04-16T01:56:11.810Z,99458.19
2023-04-16T01:58:42.105Z,99457.89
2023-04-16T02:01:10.962Z,99451.57
2023-04-16T02:03:40.535Z,99450.87
2023-04-16T02:06:09.110Z,99447.75
2023-04-16T02:08:37.600Z,99449.73
2023-04-16T02:11:06.207Z,99457.27
2023-04-16T02:13:35.426Z,99457.02
2023-04-16T02:16:03.989Z,99458.72
2023-04-16T02:19:01.770Z,99455.60
2023-04-16T02:21:31.326Z,99452.02
2023-04-16T02:23:59.685Z,99454.88
2023-04-16T02:26:30.018Z,99456.16
2023-04-16T02:29:01.783Z,99458.23
2023-04-16T02:31:37.183Z,99464.11
2023-04-16T02:34:05.919Z,99464.49
2023-04-16T02:36:34.329Z,99465.29
2023-04-16T02:39:03.357Z,99467.48
2023-04-16T02:41:31.864Z,99466.52
2023-04-16T02:44:00.393Z,99463.23
2023-04-16T02:46:28.940Z,99463.77
2023-04-16T02:48:57.506Z,99466.43
2023-04-16T02:51:27.111Z,99464.86
2023-04-16T02:53:55.622Z,99468.14
2023-04-16T02:56:24.165Z,99470.25
2023-04-16T02:58:52.714Z,99474.86
2023-04-16T03:01:21.327Z,99473.41
2023-04-16T03:03:49.776Z,99473.39
2023-04-16T03:06:18.298Z,99476.16
2023-04-16T03:08:46.736Z,99474.54
2023-04-16T03:11:15.211Z,99478.63
2023-04-16T03:13:44.363Z,99477.55
2023-04-16T03:16:12.900Z,99482.15
2023-04-16T03:18:41.507Z,99485.20
2023-04-16T03:21:10.026Z,99487.56
2023-04-16T03:23:39.760Z,99487.11
2023-04-16T03:26:08.150Z,99488.96
2023-04-16T03:28:36.519Z,99490.80
2023-04-16T03:31:05.559Z,99490.58
2023-04-16T03:33:34.142Z,99491.58
2023-04-16T03:36:02.832Z,99493.61
2023-04-16T03:38:32.203Z,99501.01
2023-04-16T03:41:00.774Z,99498.38
2023-04-16T03:43:31.421Z,99502.99
2023-04-16T03:46:00.021Z,99505.47
2023-04-16T03:48:28.744Z,99510.96
2023-04-16T03:50:57.119Z,99517.16
2023-04-16T03:53:25.689Z,99518.61
2023-04-16T03:55:54.306Z,99521.96
2023-04-16T03:58:23.043Z,99529.41
2023-04-16T04:00:54.728Z,99534.20
2023-04-16T04:03:23.311Z,99536.86
2023-04-16T04:05:52.057Z,99537.17
2023-04-16T04:08:25.914Z,99541.41
2023-04-16T04:10:54.560Z,99540.09
2023-04-16T04:13:24.333Z,99541.39
2023-04-16T04:15:53.070Z,99546.59
2023-04-16T04:18:22.106Z,99548.17
2023-04-16T04:20:51.747Z,99549.17
2023-04-16T04:23:21.389Z,99553.83
2023-04-16T04:25:50.250Z,99558.58
2023-04-16T04:28:18.774Z,99563.46
2023-04-16T04:30:47.244Z,99566.63
2023-04-16T04:33:16.026Z,99568.46
2023-04-16T04:35:44.474Z,99573.25
2023-04-16T04:38:14.959Z,99574.44
2023-04-16T04:40:44.806Z,99577.88
2023-04-16T04:43:13.266Z,99582.30
2023-04-16T04:45:42.014Z,99582.83
2023-04-16T04:48:10.629Z,99583.13
2023-04-16T04:50:40.334Z,99586.52
2023-04-16T04:53:10.059Z,99585.04
2023-04-16T04:55:39.567Z,99588.48
2023-04-16T04:58:08.400Z,99587.27
2023-04-16T05:00:37.619Z,99592.23
2023-04-16T05:03:09.504Z,99595.14
2023-04-16T05:05:38.068Z,99599.09
2023-04-16T05:08:06.514Z,99608.38
2023-04-16T05:10:34.980Z,99605.64
2023-04-16T05:13:03.557Z,99609.27
2023-04-16T05:15:32.042Z,99614.27
2023-04-16T05:18:00.695Z,99617.88
2023-04-16T05:20:29.278Z,99623.98
2023-04-16T05:22:57.748Z,99628.71
2023-04-16T05:25:26.497Z,99629.19
2023-04-16T05:27:55.312Z,99639.61
2023-04-16T05:30:23.818Z,99641.26
2023-04-16T05:32:52.419Z,99639.86
2023-04-16T05:35:21.596Z,99642.50
2023-04-16T05:37:50.071Z,99643.68
2023-04-16T05:40:18.740Z,99646.91
2023-04-16T05:42:47.136Z,99651.89
2023-04-16T05:45:15.784Z,99655.88
2023-04-16T05:47:44.922Z,99658.79
2023-04-16T05:50:13.697Z,99657.95
2023-04-16T05:52:42.060Z,99662.23
2023-04-16T05:55:11.151Z,99667.20
2023-04-16T05:57:39.632Z,99666.75
2023-04-16T06:00:09.869Z,99666.54
2023-04-16T06:02:41.753Z,99671.77
2023-04-16T06:05:10.937Z,99672.18
2023-04-16T06:07:39.389Z,99678.63
2023-04-16T06:10:09.143Z,99681.10
2023-04-16T06:12:37.721Z,99683.69
2023-04-16T06:15:08.507Z,99686.47
2023-04-16T06:17:37.135Z,99688.65
2023-04-16T06:20:07.625Z,99690.20
2023-04-16T06:22:36.157Z,99694.39
2023-04-16T06:25:05.856Z,99695.27
2023-04-16T06:27:34.442Z,99698.64
2023-04-16T06:30:03.102Z,99704.11
2023-04-16T06:32:31.684Z,99703.27
2023-04-16T06:35:00.307Z,99703.77
2023-04-16T06:37:28.976Z,99705.57
2023-04-16T06:40:01.072Z,99701.38
2023-04-16T06:42:30.977Z,99701.77
2023-04-16T06:45:02.402Z,99706.20
2023-04-16T06:47:31.513Z,99706.52
2023-04-16T06:50:01.574Z,99710.64
2023-04-16T06:52:35.676Z,99707.94
2023-04-16T06:55:07.637Z,99710.09
2023-04-16T06:57:37.597Z,99704.77
2023-04-16T07:00:09.196Z,99707.48
2023-04-16T07:02:37.742Z,99703.80
2023-04-16T07:05:11.072Z,99706.33
2023-04-16T07:07:41.506Z,99708.48
2023-04-16T07:10:11.419Z,99710.23
2023-04-16T07:12:44.087Z,99710.73
2023-04-16T07:15:13.281Z,99711.73
2023-04-16T07:17:47.378Z,99711.96
2023-04-16T07:20:25.005Z,99715.38
2023-04-16T07:22:59.759Z,99716.49
2023-04-16T07:25:30.654Z,99720.25
2023-04-16T07:28:04.184Z,99721.68
2023-04-16T07:30:34.698Z,99728.36
2023-04-16T07:33:03.796Z,99726.11
2023-04-16T07:35:35.428Z,99725.96
2023-04-16T07:38:20.889Z,99722.54
2023-04-16T07:41:01.356Z,99727.58
2023-04-16T07:43:30.948Z,99729.83
2023-04-16T07:46:04.886Z,99727.45
2023-04-16T07:48:36.495Z,99729.29
2023-04-16T07:51:05.490Z,99735.45
2023-04-16T07:53:34.042Z,99739.01
2023-04-16T07:56:02.757Z,99737.73
2023-04-16T07:58:31.864Z,99740.11
2023-04-16T08:01:01.435Z,99741.20
2023-04-16T08:03:30.790Z,99740.00
2023-04-16T08:05:59.939Z,99743.89
2023-04-16T08:08:29.157Z,99747.65
2023-04-16T08:10:57.953Z,99744.73
2023-04-16T08:13:26.605Z,99751.08
2023-04-16T08:15:55.118Z,99754.40
2023-04-16T08:18:23.824Z,99750.66
2023-04-16T08:20:52.417Z,99752.23
2023-04-16T08:23:21.603Z,99753.44
2023-04-16T08:25:51.765Z,99753.77
2023-04-16T08:28:21.054Z,99756.48
2023-04-16T08:30:50.041Z,99757.38
2023-04-16T08:33:18.524Z,99759.61
2023-04-16T08:35:46.898Z,99761.09
2023-04-16T08:38:15.338Z,99763.33
2023-04-16T08:40:45.428Z,99764.71
2023-04-16T08:43:15.933Z,99766.91
2023-04-16T08:45:47.193Z,99772.86
2023-04-16T08:48:15.895Z,99779.19
2023-04-16T08:50:46.070Z,99779.14
2023-04-16T08:53:18.603Z,99782.88
2023-04-16T08:55:48.800Z,99783.98
2023-04-16T08:58:20.825Z,99784.10
2023-04-16T09:00:48.815Z,99789.67
2023-04-16T09:03:19.232Z,99785.54
2023-04-16T09:05:49.014Z,99787.13
2023-04-16T09:08:18.244Z,99793.76
2023-04-16T09:10:48.039Z,99794.02
2023-04-16T09:13:19.800Z,99791.18
2023-04-16T09:15:51.637Z,99787.71
2023-04-16T09:18:20.677Z,99791.95
2023-04-16T09:20:49.907Z,99795.31
2023-04-16T09:23:18.324Z,99799.00
2023-04-16T09:25:46.749Z,99800.44
2023-04-16T09:28:42.185Z,99804.77
2023-04-16T09:31:12.695Z,99797.46
2023-04-16T09:33:42.243Z,99795.95
2023-04-16T09:36:10.931Z,99794.07
2023-04-16T09:38:50.684Z,99791.73
2023-04-16T09:41:20.002Z,99793.57
2023-04-16T09:43:56.571Z,99789.41
2023-04-16T09:46:29.397Z,99790.69
2023-04-16T09:48:58.207Z,99791.95
2023-04-16T09:51:36.294Z,99793.59
2023-04-16T09:54:06.188Z,99796.80
2023-04-16T09:56:41.512Z,99796.77
2023-04-16T09:59:17.777Z,99798.34
2023-04-16T10:01:46.932Z,99793.95
2023-04-16T10:04:16.314Z,99795.05
2023-04-16T10:06:47.992Z,99796.94
2023-04-16T10:09:16.602Z,99795.33
2023-04-16T10:11:45.754Z,99798.73
2023-04-16T10:14:14.692Z,99801.09
2023-04-16T10:16:43.654Z,99799.81
2023-04-16T10:19:12.749Z,99802.79
2023-04-16T10:21:42.282Z,99803.14
2023-04-16T10:24:12.178Z,99798.87
2023-04-16T10:26:41.828Z,99801.92
2023-04-16T10:29:12.957Z,99803.22
2023-04-16T10:31:42.670Z,99803.00
2023-04-16T10:34:11.842Z,99804.52
2023-04-16T10:36:40.584Z,99806.92
2023-04-16T10:39:15.431Z,99806.02
2023-04-16T10:41:45.750Z,99803.83
2023-04-16T10:44:16.386Z,99803.02
2023-04-16T10:46:48.701Z,99804.13
2023-04-16T10:49:18.904Z,99800.98
2023-04-16T10:51:57.748Z,99801.08
2023-04-16T10:54:27.832Z,99797.09
2023-04-16T10:56:58.964Z,99796.73
2023-04-16T10:59:31.961Z,99796.59
2023-04-16T11:02:06.238Z,99799.65
2023-04-16T11:04:37.011Z,99799.81
2023-04-16T11:07:17.092Z,99797.44
2023-04-16T11:09:53.500Z,99794.92
2023-04-16T11:12:23.620Z,99792.14
2023-04-16T11:14:54.064Z,99794.53
2023-04-16T11:17:23.195Z,99789.38
2023-04-16T11:19:53.510Z,99788.55
2023-04-16T11:22:22.692Z,99789.77
2023-04-16T11:24:55.990Z,99788.83
2023-04-16T11:27:25.854Z,99793.95
2023-04-16T11:30:05.462Z,99793.73
2023-04-16T11:32:35.486Z,99793.84
2023-04-16T11:35:12.502Z,99792.33
2023-04-16T11:37:41.709Z,99795.90
2023-04-16T11:40:13.043Z,99800.54
2023-04-16T11:42:43.019Z,99805.89
2023-04-16T11:45:13.654Z,99807.55
2023-04-16T11:47:47.274Z,99808.45
2023-04-16T11:50:21.480Z,99806.55
2023-04-16T11:52:51.216Z,99803.08
2023-04-16T11:55:20.857Z,99807.02
2023-04-16T11:57:50.233Z,99808.06
2023-04-16T12:00:23.094Z,99811.02
2023-04-16T12:02:54.329Z,99811.37
2023-04-16T12:05:31.249Z,99809.11
2023-04-16T12:08:01.616Z,99811.38
2023-04-16T12:10:31.884Z,99811.84
2023-04-16T12:13:12.218Z,99812.17
2023-04-16T12:15:49.009Z,99819.58
2023-04-16T12:18:21.410Z,99822.23
2023-04-16T12:20:51.041Z,99821.09
2023-04-16T12:23:27.638Z,99821.35
2023-04-16T12:25:59.081Z,99821.55
2023-04-16T12:28:33.220Z,99823.39
2023-04-16T12:31:04.250Z,99816.80
2023-04-16T12:33:33.220Z,99814.63
2023-04-16T12:36:16.544Z,99814.59
2023-04-16T12:38:50.643Z,99812.02
2023-04-16T12:41:20.746Z,99809.70
2023-04-16T12:43:51.045Z,99813.31
2023-04-16T12:46:23.392Z,99815.08
2023-04-16T12:48:52.886Z,99812.81
2023-04-16T12:51:22.922Z,99813.30
2023-04-16T12:54:00.228Z,99811.00
2023-04-16T12:56:29.196Z,99809.14
2023-04-16T12:58:57.989Z,99810.38
2023-04-16T13:01:29.446Z,99808.77
2023-04-16T13:04:01.530Z,99806.56
2023-04-16T13:06:33.942Z,99805.70
2023-04-16T13:09:04.140Z,99803.80
2023-04-16T13:11:32.890Z,99804.85
2023-04-16T13:14:01.607Z,99805.95
2023-04-16T13:16:30.161Z,99806.92
2023-04-16T13:18:58.759Z,99807.37
2023-04-16T13:21:27.749Z,99807.13
2023-04-16T13:23:56.613Z,99807.27
2023-04-16T13:26:25.502Z,99804.44
2023-04-16T13:28:54.054Z,99806.67
2023-04-16T13:31:23.692Z,99805.80
2023-04-16T13:33:53.113Z,99805.11
2023-04-16T13:36:22.534Z,99805.11
2023-04-16T13:38:50.933Z,99804.94
2023-04-16T13:41:19.539Z,99808.52
2023-04-16T13:43:51.357Z,99805.62
2023-04-16T13:46:20.013Z,99807.03
2023-04-16T13:48:48.748Z,99811.30
2023-04-16T13:51:17.204Z,99808.65
2023-04-16T13:53:45.757Z,99809.69
2023-04-16T13:56:14.502Z,99810.79
2023-04-16T13:58:43.261Z,99809.80
2023-04-16T14:01:13.108Z,99805.65
2023-04-16T14:03:45.285Z,99803.30
2023-04-16T14:06:14.485Z,99801.10
2023-04-16T14:08:43.339Z,99802.71
2023-04-16T14:11:13.218Z,99800.73
2023-04-16T14:13:42.246Z,99796.52
2023-04-16T14:16:10.933Z,99798.61
2023-04-16T14:18:41.586Z,99796.77
2023-04-16T14:21:10.622Z,99791.58
2023-04-16T14:23:39.519Z,99790.42
2023-04-16T14:26:08.089Z,99791.48
2023-04-16T14:28:37.094Z,99789.11
2023-04-16T14:31:11.774Z,99787.28
2023-04-16T14:33:42.567Z,99787.84
2023-04-16T14:36:11.241Z,99785.35
2023-04-16T14:38:40.291Z,99786.52
2023-04-16T14:41:08.821Z,99783.42
2023-04-16T14:43:40.376Z,99783.88
2023-04-16T14:46:09.290Z,99785.17
2023-04-16T14:48:37.950Z,99788.53
2023-04-16T14:51:06.780Z,99789.20
2023-04-16T14:53:37.953Z,99793.06
2023-04-16T14:56:07.112Z,99793.81
2023-04-16T14:58:37.247Z,99796.12
2023-04-16T15:01:07.248Z,99796.98
2023-04-16T15:03:36.220Z,99799.20
2023-04-16T15:06:05.883Z,99797.52
2023-04-16T15:08:34.906Z,99799.59
2023-04-16T15:11:03.472Z,99802.22
2023-04-16T15:13:33.863Z,99805.58
2023-04-16T15:16:03.867Z,99801.63
2023-04-16T15:18:33.044Z,99802.95
2023-04-16T15:21:01.464Z,99801.83
2023-04-16T15:23:30.187Z,99800.93
2023-04-16T15:25:59.166Z,99801.60
2023-04-16T15:28:27.716Z,99800.51
2023-04-16T15:30:57.342Z,99804.48
2023-04-16T15:33:26.259Z,99805.61
2023-04-16T15:35:55.004Z,99803.29
2023-04-16T15:38:23.536Z,99807.36
2023-04-16T15:40:52.346Z,99812.80
2023-04-16T15:43:21.068Z,99810.52
2023-04-16T15:45:49.560Z,99810.88
2023-04-16T15:48:18.060Z,99812.81
2023-04-16T15:50:47.335Z,99809.73
2023-04-16T15:53:23.138Z,99813.23
2023-04-16T15:55:53.257Z,99813.66
2023-04-16T15:58:24.725Z,99815.61
2023-04-16T16:01:02.900Z,99819.86
2023-04-16T16:03:33.237Z,99820.20
2023-04-16T16:06:08.562Z,99820.33
2023-04-16T16:08:38.151Z,99819.42
2023-04-16T16:11:06.607Z,99821.84
2023-04-16T16:13:36.439Z,99826.14
2023-04-16T16:16:06.969Z,99824.13
2023-04-16T16:18:38.293Z,99826.02
2023-04-16T16:21:07.146Z,99829.58
2023-04-16T16:23:35.586Z,99835.95
2023-04-16T16:26:05.650Z,99834.81
2023-04-16T16:28:43.256Z,99835.23
2023-04-16T16:31:15.817Z,99833.90
2023-04-16T16:33:44.723Z,99832.61
2023-04-16T16:36:18.982Z,99833.23
2023-04-16T16:38:53.594Z,99837.45
2023-04-16T16:41:38.018Z,99839.81
2023-04-16T16:44:22.985Z,99838.79
2023-04-16T16:47:04.542Z,99840.90
2023-04-16T16:49:38.743Z,99839.16
2023-04-16T16:52:35.757Z,99840.83
2023-04-16T16:55:10.519Z,99838.66
2023-04-16T16:57:49.299Z,99839.67
2023-04-16T17:00:24.034Z,99841.36
2023-04-16T17:02:56.102Z,99842.05
2023-04-16T17:05:35.517Z,99845.20
2023-04-16T17:08:10.924Z,99848.29
2023-04-16T17:10:45.828Z,99853.80
2023-04-16T17:13:19.860Z,99851.31
2023-04-16T17:15:50.736Z,99854.90
2023-04-16T17:18:24.268Z,99860.60
2023-04-16T17:20:54.901Z,99860.61
2023-04-16T17:23:41.234Z,99862.17
2023-04-16T17:26:15.925Z,99866.22
2023-04-16T17:28:47.826Z,99867.41
2023-04-16T17:31:26.675Z,99871.62
2023-04-16T17:33:56.455Z,99871.64
2023-04-16T17:36:26.804Z,99877.96
2023-04-16T17:38:55.387Z,99875.33
2023-04-16T17:41:26.913Z,99876.46
2023-04-16T17:43:59.316Z,99880.07
2023-04-16T17:46:27.807Z,99886.13
2023-04-16T17:49:01.020Z,99888.95
2023-04-16T17:51:30.527Z,99889.47
2023-04-16T17:53:59.134Z,99891.30
2023-04-16T17:56:27.751Z,99894.23
2023-04-16T17:58:56.718Z,99900.05
2023-04-16T18:01:25.246Z,99900.47
2023-04-16T18:03:53.902Z,99901.58
2023-04-16T18:06:22.676Z,99903.63
2023-04-16T18:08:51.167Z,99904.41
2023-04-16T18:11:19.720Z,99907.40
2023-04-16T18:13:49.042Z,99910.99
2023-04-16T18:16:19.550Z,99910.50
2023-04-16T18:18:48.455Z,99916.41
2023-04-16T18:21:16.981Z,99918.93
2023-04-16T18:23:48.508Z,99919.82
2023-04-16T18:26:20.536Z,99929.81
2023-04-16T18:28:51.173Z,99930.02
2023-04-16T18:31:21.411Z,99936.19
2023-04-16T18:33:57.219Z,99937.91
2023-04-16T18:36:26.825Z,99943.17
2023-04-16T18:41:28.618Z,99941.89
2023-04-16T18:46:08.915Z,99948.27
2023-04-16T18:48:41.609Z,99948.86
2023-04-16T18:51:16.469Z,99952.23
2023-04-16T18:53:50.160Z,99955.48
2023-04-16T18:56:23.607Z,99956.87
2023-04-16T18:58:57.494Z,99957.09
2023-04-16T19:01:30.786Z,99959.47
2023-04-16T19:04:06.611Z,99961.27
2023-04-16T19:06:39.256Z,99963.09
2023-04-16T19:09:12.256Z,99963.97
2023-04-16T19:14:34.402Z,99971.64
2023-04-16T19:17:10.580Z,99973.04
2023-04-16T19:19:42.624Z,99971.58
2023-04-16T19:22:13.093Z,99970.52
2023-04-16T19:24:49.726Z,99973.86
2023-04-16T19:27:42.534Z,99972.28
2023-04-16T19:30:24.464Z,99971.63
2023-04-16T19:33:04.086Z,99972.83
2023-04-16T19:35:38.046Z,99974.85
2023-04-16T19:38:11.009Z,99982.00
2023-04-16T19:40:47.679Z,99979.38
2023-04-16T19:43:31.632Z,99981.66
2023-04-16T19:46:07.361Z,99977.23
2023-04-16T19:48:44.452Z,99978.94
2023-04-16T19:51:17.371Z,99976.08
2023-04-16T19:53:50.727Z,99981.39
2023-04-16T19:56:23.174Z,99980.00
2023-04-16T19:58:56.315Z,99981.81
2023-04-16T20:01:32.849Z,99979.92
2023-04-16T20:04:07.009Z,99980.67
2023-04-16T20:06:40.654Z,99979.02
2023-04-16T20:09:13.130Z,99980.42
2023-04-16T20:11:45.114Z,99980.00
2023-04-16T20:14:17.275Z,99980.66
2023-04-16T20:16:47.605Z,99978.96
2023-04-16T20:19:19.730Z,99980.74
2023-04-16T20:21:52.197Z,99977.47
2023-04-16T20:24:24.984Z,99981.25
2023-04-16T20:26:56.889Z,99983.16
2023-04-16T20:29:28.718Z,99982.57
2023-04-16T20:32:01.289Z,99988.85
2023-04-16T20:34:33.192Z,99989.91
2023-04-16T20:37:05.440Z,99986.48
2023-04-16T20:39:37.251Z,99984.02
2023-04-16T20:42:10.392Z,99988.91
2023-04-16T20:44:42.430Z,99990.11
2023-04-16T20:47:13.171Z,99988.91
2023-04-16T20:49:46.716Z,99990.56
2023-04-16T20:52:18.890Z,99992.30
2023-04-16T20:54:52.010Z,99990.41
2023-04-16T20:57:23.823Z,99991.40
2023-04-16T20:59:55.661Z,99990.22
2023-04-16T21:02:28.351Z,99991.95
2023-04-16T21:05:00.618Z,99992.13
2023-04-16T21:07:32.663Z,99989.80
2023-04-16T21:10:04.528Z,99988.04
2023-04-16T21:12:36.900Z,99987.44
2023-04-16T21:15:10.159Z,99987.69
2023-04-16T21:17:42.033Z,99991.45
2023-04-16T21:20:15.695Z,99986.81
2023-04-16T21:22:47.440Z,99989.78
2023-04-16T21:25:19.313Z,99988.90
2023-04-16T21:27:49.844Z,99987.12
2023-04-16T21:30:22.169Z,99988.36
2023-04-16T21:32:53.986Z,99983.05
2023-04-16T21:35:26.184Z,99978.71
2023-04-16T21:37:58.146Z,99977.16
2023-04-16T21:40:30.072Z,99978.98
2023-04-16T21:43:01.835Z,99983.02
2023-04-16T21:45:34.433Z,99981.77
2023-04-16T21:48:06.961Z,99979.98
2023-04-16T21:50:39.005Z,99978.92
2023-04-16T21:53:09.892Z,99983.13
2023-04-16T21:55:42.308Z,99981.86
2023-04-16T21:58:14.436Z,99985.14
2023-04-16T22:00:47.403Z,99983.58
2023-04-16T22:03:19.743Z,99979.95
2023-04-16T22:05:51.683Z,99983.20
2023-04-16T22:08:25.011Z,99984.17
2023-04-16T22:11:01.872Z,99988.19
2023-04-16T22:13:34.132Z,99984.92
2023-04-16T22:16:06.109Z,99987.88
2023-04-16T22:18:37.546Z,99987.65
2023-04-16T22:21:09.404Z,99991.30
2023-04-16T22:23:41.264Z,99987.83
2023-04-16T22:26:12.847Z,99988.14
2023-04-16T22:28:44.769Z,99986.20
2023-04-16T22:31:17.063Z,99987.87
2023-04-16T22:33:48.980Z,99987.91
2023-04-16T22:36:21.113Z,99989.83
2023-04-16T22:38:51.397Z,99987.68
2023-04-16T22:41:23.932Z,99989.54
2023-04-16T22:43:56.359Z,99990.77
2023-04-16T22:46:28.344Z,99997.03
2023-04-16T22:48:58.873Z,100000.60
2023-04-16T22:51:31.779Z,99998.02
2023-04-16T22:54:03.723Z,99998.84
2023-04-16T22:56:35.760Z,99997.80
2023-04-16T22:59:06.069Z,99995.33
2023-04-16T23:01:38.700Z,99994.48
2023-04-16T23:04:11.145Z,99993.58
2023-04-16T23:06:43.215Z,99996.50
2023-04-16T23:09:15.215Z,99996.30
2023-04-16T23:11:47.292Z,99993.58
2023-04-16T23:14:19.508Z,99993.91
2023-04-16T23:16:51.605Z,99995.08
2023-04-16T23:19:23.926Z,99993.78
2023-04-16T23:21:54.262Z,99990.50
2023-04-16T23:24:26.546Z,99989.61
2023-04-16T23:27:00.952Z,99989.01
2023-04-16T23:29:34.602Z,99991.69
2023-04-16T23:32:07.214Z,99996.03
2023-04-16T23:34:39.242Z,99993.14
2023-04-16T23:37:11.280Z,99993.05
2023-04-16T23:39:43.167Z,99997.05
2023-04-16T23:42:15.206Z,99993.53
2023-04-16T23:44:47.091Z,99995.95
2023-04-16T23:47:19.021Z,99996.00
2023-04-16T23:49:51.134Z,100002.84
2023-04-16T23:52:23.047Z,100002.80
2023-04-16T23:54:55.220Z,100002.71
2023-04-16T23:57:27.288Z,100000.88
